Henniker, New Hampshire
Current Conditions -  °F | °C
As of 3:42 AM on Friday 28 Nov 2014 (Local Time) from KMHT Reporting Station
Light Snow Light Snow  
Wind Chill: 22°   Ceiling: 3500
Heat Index: 28°   Visibility: 3mi
Dew Point: 25°   Wind: 6mph
Humidity: 88%   Direction: 340°NNW
Pressure: 29.99"   Gusts: NA
Location:  43.19°N, 71.82°W
Report Text: KMHT 280842Z 34005KT 3SM -SN BR BKN035 OVC050 M02/M04 A2999 RMK AO2 P0000 T10221039
Loading
Personal Weather Stations






























Interactive Weather Map New forecast layout! Learn more

10-Day Weather Forecast

Advertisements
Track Severe Weather on mobile